sensor_id;sensor_type;location;lat;lon;timestamp;pressure;altitude;pressure_sealevel;temperature;humidity
48200;BME280;33990;44.602;10.976;2023-07-13T00:02:06;100815.41;;;28.85;60.71
48200;BME280;33990;44.602;10.976;2023-07-13T00:04:34;100817.31;;;28.85;60.65
48200;BME280;33990;44.602;10.976;2023-07-13T00:07:02;100827.34;;;28.84;60.48
48200;BME280;33990;44.602;10.976;2023-07-13T00:09:29;100824.59;;;28.84;60.72
48200;BME280;33990;44.602;10.976;2023-07-13T00:11:57;100829.03;;;28.85;60.51
48200;BME280;33990;44.602;10.976;2023-07-13T00:14:27;100827.16;;;28.86;60.82
48200;BME280;33990;44.602;10.976;2023-07-13T00:16:55;100829.69;;;28.87;60.41
48200;BME280;33990;44.602;10.976;2023-07-13T00:19:23;100826.94;;;28.87;60.83
48200;BME280;33990;44.602;10.976;2023-07-13T00:21:50;100824.22;;;28.87;60.87
48200;BME280;33990;44.602;10.976;2023-07-13T00:24:18;100818.97;;;28.86;60.92
48200;BME280;33990;44.602;10.976;2023-07-13T00:26:51;100824.22;;;28.87;60.93
48200;BME280;33990;44.602;10.976;2023-07-13T00:29:19;100824.22;;;28.87;60.84
48200;BME280;33990;44.602;10.976;2023-07-13T00:31:48;100819.63;;;28.88;60.75
48200;BME280;33990;44.602;10.976;2023-07-13T00:34:16;100838.50;;;28.89;60.49
48200;BME280;33990;44.602;10.976;2023-07-13T00:36:44;100833.06;;;28.89;60.92
48200;BME280;33990;44.602;10.976;2023-07-13T00:39:11;100841.25;;;28.89;60.85
48200;BME280;33990;44.602;10.976;2023-07-13T00:41:39;100841.03;;;28.91;61.10
48200;BME280;33990;44.602;10.976;2023-07-13T00:44:14;100835.59;;;28.91;61.01
48200;BME280;33990;44.602;10.976;2023-07-13T00:46:42;100835.59;;;28.91;61.08
48200;BME280;33990;44.602;10.976;2023-07-13T00:49:12;100834.75;;;28.90;60.61
48200;BME280;33990;44.602;10.976;2023-07-13T00:51:49;100833.69;;;28.91;61.04
48200;BME280;33990;44.602;10.976;2023-07-13T00:54:23;100822.63;;;28.93;60.80
48200;BME280;33990;44.602;10.976;2023-07-13T00:56:55;100820.91;;;28.92;61.01
48200;BME280;33990;44.602;10.976;2023-07-13T00:59:25;100824.47;;;28.92;61.15
48200;BME280;33990;44.602;10.976;2023-07-13T01:01:54;100818.00;;;28.93;61.00
48200;BME280;33990;44.602;10.976;2023-07-13T01:04:24;100816.28;;;28.92;60.79
48200;BME280;33990;44.602;10.976;2023-07-13T01:06:52;100805.22;;;28.94;61.04
48200;BME280;33990;44.602;10.976;2023-07-13T01:09:20;100815.28;;;28.93;60.72
48200;BME280;33990;44.602;10.976;2023-07-13T01:11:49;100815.28;;;28.93;61.11
48200;BME280;33990;44.602;10.976;2023-07-13T01:14:16;100805.22;;;28.94;60.90
48200;BME280;33990;44.602;10.976;2023-07-13T01:16:46;100816.97;;;28.94;61.13
48200;BME280;33990;44.602;10.976;2023-07-13T01:21:52;100816.97;;;28.94;60.83
48200;BME280;33990;44.602;10.976;2023-07-13T01:24:20;100816.97;;;28.94;61.19
48200;BME280;33990;44.602;10.976;2023-07-13T01:26:49;100816.75;;;28.96;61.11
48200;BME280;33990;44.602;10.976;2023-07-13T01:29:16;100814.22;;;28.94;61.23
48200;BME280;33990;44.602;10.976;2023-07-13T01:31:43;100803.34;;;28.94;60.90
48200;BME280;33990;44.602;10.976;2023-07-13T01:34:12;100802.28;;;28.95;60.74
48200;BME280;33990;44.602;10.976;2023-07-13T01:36:40;100800.59;;;28.94;61.18
48200;BME280;33990;44.602;10.976;2023-07-13T01:39:07;100797.66;;;28.96;60.89
48200;BME280;33990;44.602;10.976;2023-07-13T01:41:35;100787.59;;;28.96;61.05
48200;BME280;33990;44.602;10.976;2023-07-13T01:44:02;100778.59;;;28.96;60.92
48200;BME280;33990;44.602;10.976;2023-07-13T01:46:30;100775.88;;;28.96;60.85
48200;BME280;33990;44.602;10.976;2023-07-13T01:48:58;100773.97;;;28.96;61.00
48200;BME280;33990;44.602;10.976;2023-07-13T01:51:26;100774.88;;;28.97;60.93
48200;BME280;33990;44.602;10.976;2023-07-13T01:53:53;100774.88;;;28.97;60.78
48200;BME280;33990;44.602;10.976;2023-07-13T01:56:20;100781.19;;;28.97;60.97
48200;BME280;33990;44.602;10.976;2023-07-13T01:58:48;100778.44;;;28.97;60.74
48200;BME280;33990;44.602;10.976;2023-07-13T02:01:16;100769.22;;;28.98;60.54
48200;BME280;33990;44.602;10.976;2023-07-13T02:03:43;100768.38;;;28.98;60.50
48200;BME280;33990;44.602;10.976;2023-07-13T02:06:10;100762.94;;;28.98;60.68
48200;BME280;33990;44.602;10.976;2023-07-13T02:08:40;100758.31;;;28.98;60.59
48200;BME280;33990;44.602;10.976;2023-07-13T02:11:08;100760.22;;;28.98;60.59
48200;BME280;33990;44.602;10.976;2023-07-13T02:13:35;100743.84;;;28.98;60.54
48200;BME280;33990;44.602;10.976;2023-07-13T02:16:03;100743.03;;;28.97;60.36
48200;BME280;33990;44.602;10.976;2023-07-13T02:18:31;100737.56;;;28.97;60.45
48200;BME280;33990;44.602;10.976;2023-07-13T02:20:59;100734.84;;;28.97;60.47
48200;BME280;33990;44.602;10.976;2023-07-13T02:23:26;100741.97;;;28.98;60.26
48200;BME280;33990;44.602;10.976;2023-07-13T02:25:57;100749.31;;;28.98;60.18
48200;BME280;33990;44.602;10.976;2023-07-13T02:28:25;100756.66;;;28.97;59.66
48200;BME280;33990;44.602;10.976;2023-07-13T02:30:52;100761.06;;;28.98;59.93
48200;BME280;33990;44.602;10.976;2023-07-13T02:33:20;100759.38;;;28.97;59.81
48200;BME280;33990;44.602;10.976;2023-07-13T02:35:48;100765.66;;;28.98;60.02
48200;BME280;33990;44.602;10.976;2023-07-13T02:38:15;100754.75;;;28.98;59.47
48200;BME280;33990;44.602;10.976;2023-07-13T02:40:43;100750.16;;;28.98;59.76
48200;BME280;33990;44.602;10.976;2023-07-13T02:43:12;100755.59;;;28.98;59.47
48200;BME280;33990;44.602;10.976;2023-07-13T02:45:43;100752.03;;;28.98;59.33
48200;BME280;33990;44.602;10.976;2023-07-13T02:48:13;100755.81;;;28.97;59.10
48200;BME280;33990;44.602;10.976;2023-07-13T02:50:41;100755.59;;;28.98;59.46
48200;BME280;33990;44.602;10.976;2023-07-13T02:53:09;100768.38;;;28.98;59.39
48200;BME280;33990;44.602;10.976;2023-07-13T02:55:36;100770.28;;;28.97;59.68
48200;BME280;33990;44.602;10.976;2023-07-13T02:58:04;100771.13;;;28.98;59.45
48200;BME280;33990;44.602;10.976;2023-07-13T03:00:31;100777.41;;;28.98;59.34
48200;BME280;33990;44.602;10.976;2023-07-13T03:02:58;100782.84;;;28.98;59.39
48200;BME280;33990;44.602;10.976;2023-07-13T03:05:27;100780.97;;;28.99;59.54
48200;BME280;33990;44.602;10.976;2023-07-13T03:07:56;100781.81;;;28.99;59.22
48200;BME280;33990;44.602;10.976;2023-07-13T03:10:25;100771.13;;;28.98;59.23
48200;BME280;33990;44.602;10.976;2023-07-13T03:12:53;100781.19;;;28.97;58.77
48200;BME280;33990;44.602;10.976;2023-07-13T03:15:24;100771.47;;;28.95;58.76
48200;BME280;33990;44.602;10.976;2023-07-13T03:17:54;100758.88;;;28.94;58.59
48200;BME280;33990;44.602;10.976;2023-07-13T03:20:21;100762.66;;;28.93;58.58
48200;BME280;33990;44.602;10.976;2023-07-13T03:22:48;100756.34;;;28.92;58.17
48200;BME280;33990;44.602;10.976;2023-07-13T03:25:17;100752.78;;;28.92;57.79
48200;BME280;33990;44.602;10.976;2023-07-13T03:27:44;100743.75;;;28.91;57.74
48200;BME280;33990;44.602;10.976;2023-07-13T03:30:12;100745.66;;;28.91;58.25
48200;BME280;33990;44.602;10.976;2023-07-13T03:32:42;100762.00;;;28.91;58.40
48200;BME280;33990;44.602;10.976;2023-07-13T03:35:10;100764.50;;;28.92;58.55
48200;BME280;33990;44.602;10.976;2023-07-13T03:37:37;100755.50;;;28.92;57.98
48200;BME280;33990;44.602;10.976;2023-07-13T03:40:14;100753.63;;;28.92;58.11
48200;BME280;33990;44.602;10.976;2023-07-13T03:42:43;100741.88;;;28.92;58.56
48200;BME280;33990;44.602;10.976;2023-07-13T03:45:14;100735.41;;;28.93;58.37
48200;BME280;33990;44.602;10.976;2023-07-13T03:47:42;100742.72;;;28.92;58.09
48200;BME280;33990;44.602;10.976;2023-07-13T03:50:09;100739.16;;;28.92;58.26
48200;BME280;33990;44.602;10.976;2023-07-13T03:52:37;100743.75;;;28.91;57.78
48200;BME280;33990;44.602;10.976;2023-07-13T03:55:04;100751.94;;;28.91;58.00
48200;BME280;33990;44.602;10.976;2023-07-13T03:57:34;100765.56;;;28.91;57.80
48200;BME280;33990;44.602;10.976;2023-07-13T04:00:06;100765.56;;;28.91;58.04
48200;BME280;33990;44.602;10.976;2023-07-13T04:02:41;100771.00;;;28.91;58.28
48200;BME280;33990;44.602;10.976;2023-07-13T04:05:09;100764.50;;;28.92;57.83
48200;BME280;33990;44.602;10.976;2023-07-13T04:07:36;100759.06;;;28.92;57.98
48200;BME280;33990;44.602;10.976;2023-07-13T04:10:04;100750.88;;;28.92;58.37
48200;BME280;33990;44.602;10.976;2023-07-13T04:12:32;100762.84;;;28.91;58.21
48200;BME280;33990;44.602;10.976;2023-07-13T04:14:59;100762.00;;;28.91;57.91
48200;BME280;33990;44.602;10.976;2023-07-13T04:17:26;100779.41;;;28.90;57.89
48200;BME280;33990;44.602;10.976;2023-07-13T04:19:54;100773.94;;;28.90;57.99
48200;BME280;33990;44.602;10.976;2023-07-13T04:22:21;100779.41;;;28.90;58.28
48200;BME280;33990;44.602;10.976;2023-07-13T04:24:49;100768.50;;;28.90;57.95
48200;BME280;33990;44.602;10.976;2023-07-13T04:27:16;100774.78;;;28.90;57.88
48200;BME280;33990;44.602;10.976;2023-07-13T04:29:43;100776.69;;;28.90;57.77
48200;BME280;33990;44.602;10.976;2023-07-13T04:32:11;100785.69;;;28.90;58.04
48200;BME280;33990;44.602;10.976;2023-07-13T04:34:38;100791.97;;;28.91;58.00
48200;BME280;33990;44.602;10.976;2023-07-13T04:37:06;100797.44;;;28.91;58.25
48200;BME280;33990;44.602;10.976;2023-07-13T04:39:34;100799.09;;;28.92;58.80
48200;BME280;33990;44.602;10.976;2023-07-13T04:42:02;100792.81;;;28.91;58.62
48200;BME280;33990;44.602;10.976;2023-07-13T04:44:30;100796.38;;;28.92;58.61
48200;BME280;33990;44.602;10.976;2023-07-13T04:46:57;100808.31;;;28.91;58.85
48200;BME280;33990;44.602;10.976;2023-07-13T04:49:25;100801.84;;;28.92;58.77
48200;BME280;33990;44.602;10.976;2023-07-13T04:51:52;100780.25;;;28.90;58.44
48200;BME280;33990;44.602;10.976;2023-07-13T04:54:19;100789.47;;;28.89;58.25
48200;BME280;33990;44.602;10.976;2023-07-13T04:56:47;100806.81;;;28.88;58.14
48200;BME280;33990;44.602;10.976;2023-07-13T04:59:14;100815.00;;;28.88;58.13
48200;BME280;33990;44.602;10.976;2023-07-13T05:01:41;100820.66;;;28.87;58.07
48200;BME280;33990;44.602;10.976;2023-07-13T05:04:09;100813.31;;;28.87;58.19
48200;BME280;33990;44.602;10.976;2023-07-13T05:06:36;100806.19;;;28.86;58.25
48200;BME280;33990;44.602;10.976;2023-07-13T05:09:04;100807.41;;;28.83;57.80
48200;BME280;33990;44.602;10.976;2023-07-13T05:11:31;100815.41;;;28.85;58.03
48200;BME280;33990;44.602;10.976;2023-07-13T05:13:58;100816.44;;;28.84;57.66
48200;BME280;33990;44.602;10.976;2023-07-13T05:16:26;100829.22;;;28.83;57.73
48200;BME280;33990;44.602;10.976;2023-07-13T05:18:53;100825.66;;;28.83;57.39
48200;BME280;33990;44.602;10.976;2023-07-13T05:21:21;100824.81;;;28.82;57.62
48200;BME280;33990;44.602;10.976;2023-07-13T05:23:48;100834.88;;;28.82;57.04
48200;BME280;33990;44.602;10.976;2023-07-13T05:26:16;100827.75;;;28.81;57.25
48200;BME280;33990;44.602;10.976;2023-07-13T05:28:44;100811.56;;;28.79;56.82
48200;BME280;33990;44.602;10.976;2023-07-13T05:31:11;100805.28;;;28.79;56.61
48200;BME280;33990;44.602;10.976;2023-07-13T05:33:40;100818.72;;;28.80;57.02
48200;BME280;33990;44.602;10.976;2023-07-13T05:36:07;100809.69;;;28.80;56.82
48200;BME280;33990;44.602;10.976;2023-07-13T05:38:35;100815.13;;;28.80;57.15
48200;BME280;33990;44.602;10.976;2023-07-13T05:41:02;100829.81;;;28.79;56.79
48200;BME280;33990;44.602;10.976;2023-07-13T05:43:32;100819.94;;;28.78;56.69
48200;BME280;33990;44.602;10.976;2023-07-13T05:46:00;100837.13;;;28.78;56.15
48200;BME280;33990;44.602;10.976;2023-07-13T05:48:27;100841.75;;;28.78;56.09
48200;BME280;33990;44.602;10.976;2023-07-13T05:50:55;100839.88;;;28.78;55.80
48200;BME280;33990;44.602;10.976;2023-07-13T05:53:22;100837.13;;;28.78;55.68
48200;BME280;33990;44.602;10.976;2023-07-13T05:55:49;100833.78;;;28.76;55.46
48200;BME280;33990;44.602;10.976;2023-07-13T05:58:17;100838.34;;;28.76;55.63
48200;BME280;33990;44.602;10.976;2023-07-13T06:00:46;100850.31;;;28.75;55.30
48200;BME280;33990;44.602;10.976;2023-07-13T06:03:16;100855.56;;;28.76;55.10
48200;BME280;33990;44.602;10.976;2023-07-13T06:05:43;100850.97;;;28.77;54.88
48200;BME280;33990;44.602;10.976;2023-07-13T06:08:11;100852.84;;;28.76;54.98
48200;BME280;33990;44.602;10.976;2023-07-13T06:10:38;100852.84;;;28.76;54.98
48200;BME280;33990;44.602;10.976;2023-07-13T06:13:05;100861.88;;;28.77;55.08
48200;BME280;33990;44.602;10.976;2023-07-13T06:15:33;100850.97;;;28.77;54.64
48200;BME280;33990;44.602;10.976;2023-07-13T06:18:00;100849.09;;;28.77;54.58
48200;BME280;33990;44.602;10.976;2023-07-13T06:20:28;100848.03;;;28.78;54.54
48200;BME280;33990;44.602;10.976;2023-07-13T06:22:56;100842.59;;;28.78;54.68
48200;BME280;33990;44.602;10.976;2023-07-13T06:25:26;100825.41;;;28.78;54.51
48200;BME280;33990;44.602;10.976;2023-07-13T06:27:53;100830.00;;;28.77;54.23
48200;BME280;33990;44.602;10.976;2023-07-13T06:30:20;100839.88;;;28.78;54.08
48200;BME280;33990;44.602;10.976;2023-07-13T06:32:49;100849.91;;;28.78;54.82
48200;BME280;33990;44.602;10.976;2023-07-13T06:35:17;100843.44;;;28.79;54.42
48200;BME280;33990;44.602;10.976;2023-07-13T06:37:44;100836.28;;;28.78;53.91
48200;BME280;33990;44.602;10.976;2023-07-13T06:40:12;100842.13;;;28.75;52.72
48200;BME280;33990;44.602;10.976;2023-07-13T06:42:39;100852.56;;;28.71;51.76
48200;BME280;33990;44.602;10.976;2023-07-13T06:45:07;100855.88;;;28.67;51.68
48200;BME280;33990;44.602;10.976;2023-07-13T06:47:34;100850.16;;;28.62;51.28
48200;BME280;33990;44.602;10.976;2023-07-13T06:50:02;100854.94;;;28.59;51.52
48200;BME280;33990;44.602;10.976;2023-07-13T06:52:30;100851.38;;;28.59;52.05
48200;BME280;33990;44.602;10.976;2023-07-13T06:54:57;100853.28;;;28.58;52.28
48200;BME280;33990;44.602;10.976;2023-07-13T06:57:24;100859.56;;;28.59;52.27
48200;BME280;33990;44.602;10.976;2023-07-13T06:59:52;100850.56;;;28.58;52.51
48200;BME280;33990;44.602;10.976;2023-07-13T07:02:19;100854.31;;;28.57;52.21
48200;BME280;33990;44.602;10.976;2023-07-13T07:04:46;100862.66;;;28.56;52.21
48200;BME280;33990;44.602;10.976;2023-07-13T07:07:14;100851.13;;;28.54;51.62
48200;BME280;33990;44.602;10.976;2023-07-13T07:09:41;100869.16;;;28.55;51.43
48200;BME280;33990;44.602;10.976;2023-07-13T07:12:08;100867.00;;;28.50;51.38
48200;BME280;33990;44.602;10.976;2023-07-13T07:14:36;100863.19;;;28.45;51.73
48200;BME280;33990;44.602;10.976;2023-07-13T07:17:04;100847.81;;;28.37;51.54
48200;BME280;33990;44.602;10.976;2023-07-13T07:19:31;100840.34;;;28.31;51.87
48200;BME280;33990;44.602;10.976;2023-07-13T07:21:59;100842.16;;;28.24;52.69
48200;BME280;33990;44.602;10.976;2023-07-13T07:24:26;100816.75;;;28.17;52.78
48200;BME280;33990;44.602;10.976;2023-07-13T07:26:54;100819.00;;;28.13;53.09
48200;BME280;33990;44.602;10.976;2023-07-13T07:29:24;100826.91;;;28.08;53.16
48200;BME280;33990;44.602;10.976;2023-07-13T07:31:56;100838.41;;;28.10;53.52
48200;BME280;33990;44.602;10.976;2023-07-13T07:34:26;100843.28;;;28.15;53.69
48200;BME280;33990;44.602;10.976;2023-07-13T07:36:53;100866.19;;;28.20;53.53
48200;BME280;33990;44.602;10.976;2023-07-13T07:39:24;100862.25;;;28.23;53.44
48200;BME280;33990;44.602;10.976;2023-07-13T07:41:51;100854.47;;;28.20;54.05
48200;BME280;33990;44.602;10.976;2023-07-13T07:44:21;100853.16;;;28.16;53.96
48200;BME280;33990;44.602;10.976;2023-07-13T07:46:49;100859.25;;;28.18;53.66
48200;BME280;33990;44.602;10.976;2023-07-13T07:49:16;100848.16;;;28.19;54.22
48200;BME280;33990;44.602;10.976;2023-07-13T07:51:44;100833.53;;;28.20;54.12
48200;BME280;33990;44.602;10.976;2023-07-13T07:54:11;100833.44;;;28.14;54.11
48200;BME280;33990;44.602;10.976;2023-07-13T07:56:45;100827.06;;;28.06;54.59
48200;BME280;33990;44.602;10.976;2023-07-13T07:59:32;100820.41;;;28.09;54.55
48200;BME280;33990;44.602;10.976;2023-07-13T08:02:03;100806.34;;;28.05;54.59
48200;BME280;33990;44.602;10.976;2023-07-13T08:04:33;100796.88;;;28.01;55.47
48200;BME280;33990;44.602;10.976;2023-07-13T08:07:04;100796.66;;;28.03;55.24
48200;BME280;33990;44.602;10.976;2023-07-13T08:09:31;100812.63;;;28.06;55.37
48200;BME280;33990;44.602;10.976;2023-07-13T08:11:59;100823.97;;;28.09;55.52
48200;BME280;33990;44.602;10.976;2023-07-13T08:14:29;100808.94;;;28.14;55.56
48200;BME280;33990;44.602;10.976;2023-07-13T08:17:16;100804.81;;;28.18;55.10
48200;BME280;33990;44.602;10.976;2023-07-13T08:19:44;100787.44;;;28.19;55.51
48200;BME280;33990;44.602;10.976;2023-07-13T08:22:11;100785.13;;;28.16;55.95
48200;BME280;33990;44.602;10.976;2023-07-13T08:24:38;100802.88;;;28.12;56.01
48200;BME280;33990;44.602;10.976;2023-07-13T08:27:06;100818.78;;;28.15;56.27
48200;BME280;33990;44.602;10.976;2023-07-13T08:29:33;100809.63;;;28.16;55.88
48200;BME280;33990;44.602;10.976;2023-07-13T08:32:01;100800.19;;;28.18;56.19
48200;BME280;33990;44.602;10.976;2023-07-13T08:34:28;100797.31;;;28.20;55.92
48200;BME280;33990;44.602;10.976;2023-07-13T08:36:55;100801.88;;;28.19;56.13
48200;BME280;33990;44.602;10.976;2023-07-13T08:39:23;100828.72;;;28.22;56.38
48200;BME280;33990;44.602;10.976;2023-07-13T08:41:57;100874.84;;;28.24;56.22
48200;BME280;33990;44.602;10.976;2023-07-13T08:44:43;100859.16;;;28.26;56.12
48200;BME280;33990;44.602;10.976;2023-07-13T08:47:15;100848.25;;;28.26;56.46
48200;BME280;33990;44.602;10.976;2023-07-13T08:49:44;100880.19;;;28.17;56.59
48200;BME280;33990;44.602;10.976;2023-07-13T08:52:26;100897.66;;;28.08;56.34
48200;BME280;33990;44.602;10.976;2023-07-13T08:54:57;100890.44;;;28.00;57.10
48200;BME280;33990;44.602;10.976;2023-07-13T08:57:33;100891.00;;;27.96;56.90
48200;BME280;33990;44.602;10.976;2023-07-13T09:00:01;100909.56;;;27.92;57.36
48200;BME280;33990;44.602;10.976;2023-07-13T09:02:50;100935.06;;;27.91;57.81
48200;BME280;33990;44.602;10.976;2023-07-13T09:05:30;100959.56;;;27.91;58.24
48200;BME280;33990;44.602;10.976;2023-07-13T09:10:53;100919.78;;;27.90;58.51
48200;BME280;33990;44.602;10.976;2023-07-13T09:16:00;100833.19;;;27.79;59.54
48200;BME280;33990;44.602;10.976;2023-07-13T09:18:59;100810.47;;;27.72;60.02
48200;BME280;33990;44.602;10.976;2023-07-13T09:21:30;100790.13;;;27.68;60.23
48200;BME280;33990;44.602;10.976;2023-07-13T09:24:38;100802.56;;;27.62;60.74
48200;BME280;33990;44.602;10.976;2023-07-13T09:27:18;100862.41;;;27.62;60.99
48200;BME280;33990;44.602;10.976;2023-07-13T09:30:30;100920.00;;;27.66;60.93
48200;BME280;33990;44.602;10.976;2023-07-13T09:33:01;100940.19;;;27.71;61.13
48200;BME280;33990;44.602;10.976;2023-07-13T09:35:29;100937.78;;;27.76;61.32
48200;BME280;33990;44.602;10.976;2023-07-13T09:37:59;100941.00;;;27.80;61.13
48200;BME280;33990;44.602;10.976;2023-07-13T09:40:59;100952.88;;;27.79;61.32
48200;BME280;33990;44.602;10.976;2023-07-13T09:43:28;100955.84;;;27.69;62.12
48200;BME280;33990;44.602;10.976;2023-07-13T09:45:56;100942.19;;;27.54;62.69
48200;BME280;33990;44.602;10.976;2023-07-13T09:48:23;100943.66;;;27.42;62.83
48200;BME280;33990;44.602;10.976;2023-07-13T09:50:54;100947.47;;;27.33;62.76
48200;BME280;33990;44.602;10.976;2023-07-13T09:53:23;100948.88;;;27.29;62.24
48200;BME280;33990;44.602;10.976;2023-07-13T09:55:50;100955.16;;;27.29;61.91
48200;BME280;33990;44.602;10.976;2023-07-13T09:58:25;100952.06;;;27.32;61.61
48200;BME280;33990;44.602;10.976;2023-07-13T10:01:02;100963.78;;;27.33;60.93
48200;BME280;33990;44.602;10.976;2023-07-13T10:03:36;100969.22;;;27.33;60.55
48200;BME280;33990;44.602;10.976;2023-07-13T10:06:15;100953.13;;;27.31;60.28
48200;BME280;33990;44.602;10.976;2023-07-13T10:08:45;100961.44;;;27.30;60.48
48200;BME280;33990;44.602;10.976;2023-07-13T10:11:18;100955.81;;;27.31;60.18
48200;BME280;33990;44.602;10.976;2023-07-13T10:13:51;100947.28;;;27.34;60.27
48200;BME280;33990;44.602;10.976;2023-07-13T10:16:22;100956.59;;;27.40;60.38
48200;BME280;33990;44.602;10.976;2023-07-13T10:18:55;100948.25;;;27.42;60.58
48200;BME280;33990;44.602;10.976;2023-07-13T10:21:27;100960.66;;;27.44;60.58
48200;BME280;33990;44.602;10.976;2023-07-13T10:24:11;100952.13;;;27.47;60.37
48200;BME280;33990;44.602;10.976;2023-07-13T10:26:47;100953.06;;;27.54;60.32
48200;BME280;33990;44.602;10.976;2023-07-13T10:29:16;100948.13;;;27.58;60.28
48200;BME280;33990;44.602;10.976;2023-07-13T10:31:45;100942.31;;;27.61;60.28
48200;BME280;33990;44.602;10.976;2023-07-13T10:34:13;100951.78;;;27.65;60.39
48200;BME280;33990;44.602;10.976;2023-07-13T10:36:45;100954.16;;;27.68;60.08
48200;BME280;33990;44.602;10.976;2023-07-13T10:39:26;100936.94;;;27.76;60.38
48200;BME280;33990;44.602;10.976;2023-07-13T10:41:59;100938.91;;;27.82;60.17
48200;BME280;33990;44.602;10.976;2023-07-13T10:44:30;100936.88;;;27.84;60.26
48200;BME280;33990;44.602;10.976;2023-07-13T10:47:01;100939.38;;;27.85;60.54
48200;BME280;33990;44.602;10.976;2023-07-13T10:49:31;100937.97;;;27.90;60.02
48200;BME280;33990;44.602;10.976;2023-07-13T10:51:59;100928.53;;;28.00;60.08
48200;BME280;33990;44.602;10.976;2023-07-13T10:54:27;100930.94;;;27.80;60.85
48200;BME280;33990;44.602;10.976;2023-07-13T10:57:16;100921.16;;;27.71;61.11
48200;BME280;33990;44.602;10.976;2023-07-13T10:59:49;100924.19;;;27.76;61.16
48200;BME280;33990;44.602;10.976;2023-07-13T11:02:35;100903.53;;;27.82;60.93
48200;BME280;33990;44.602;10.976;2023-07-13T11:05:35;100907.31;;;27.81;60.75
48200;BME280;33990;44.602;10.976;2023-07-13T11:10:53;100897.34;;;27.73;60.61
48200;BME280;33990;44.602;10.976;2023-07-13T11:13:55;100903.03;;;27.64;60.80
48200;BME280;33990;44.602;10.976;2023-07-13T11:19:23;100885.69;;;27.65;60.71
48200;BME280;33990;44.602;10.976;2023-07-13T11:22:11;100883.59;;;27.67;60.69
48200;BME280;33990;44.602;10.976;2023-07-13T11:33:11;100872.47;;;27.91;60.40
48200;BME280;33990;44.602;10.976;2023-07-13T11:38:22;100866.31;;;27.97;59.94
48200;BME280;33990;44.602;10.976;2023-07-13T11:40:53;100863.59;;;27.97;60.08
48200;BME280;33990;44.602;10.976;2023-07-13T11:43:23;100862.53;;;27.98;59.88
48200;BME280;33990;44.602;10.976;2023-07-13T11:45:50;100870.97;;;28.03;59.90
48200;BME280;33990;44.602;10.976;2023-07-13T11:50:53;100872.59;;;28.13;59.13
48200;BME280;33990;44.602;10.976;2023-07-13T11:53:23;100863.13;;;28.08;59.75
48200;BME280;33990;44.602;10.976;2023-07-13T11:55:53;100858.63;;;28.16;59.23
48200;BME280;33990;44.602;10.976;2023-07-13T11:58:23;100852.88;;;28.10;59.75
48200;BME280;33990;44.602;10.976;2023-07-13T12:00:52;100854.59;;;28.12;59.91
48200;BME280;33990;44.602;10.976;2023-07-13T12:03:22;100855.31;;;28.20;59.62
48200;BME280;33990;44.602;10.976;2023-07-13T12:06:48;100853.69;;;28.26;59.57
48200;BME280;33990;44.602;10.976;2023-07-13T12:09:12;100847.63;;;28.24;59.52
48200;BME280;33990;44.602;10.976;2023-07-13T12:11:42;100849.28;;;28.25;59.29
48200;BME280;33990;44.602;10.976;2023-07-13T12:14:16;100842.16;;;28.24;58.83
48200;BME280;33990;44.602;10.976;2023-07-13T12:16:45;100843.75;;;28.33;58.88
48200;BME280;33990;44.602;10.976;2023-07-13T12:19:21;100840.75;;;28.28;59.20
48200;BME280;33990;44.602;10.976;2023-07-13T12:21:52;100842.22;;;28.30;58.57
48200;BME280;33990;44.602;10.976;2023-07-13T12:24:21;100841.66;;;28.35;58.78
48200;BME280;33990;44.602;10.976;2023-07-13T12:26:55;100833.22;;;28.30;58.67
48200;BME280;33990;44.602;10.976;2023-07-13T12:29:27;100829.19;;;28.26;58.61
48200;BME280;33990;44.602;10.976;2023-07-13T12:31:54;100823.88;;;28.18;59.20
48200;BME280;33990;44.602;10.976;2023-07-13T12:34:25;100824.06;;;28.16;58.80
48200;BME280;33990;44.602;10.976;2023-07-13T12:39:46;100829.22;;;28.11;58.67
48200;BME280;33990;44.602;10.976;2023-07-13T12:42:29;100823.41;;;28.14;59.04
48200;BME280;33990;44.602;10.976;2023-07-13T12:45:22;100816.06;;;28.15;58.69
48200;BME280;33990;44.602;10.976;2023-07-13T12:47:53;100811.47;;;28.15;58.80
48200;BME280;33990;44.602;10.976;2023-07-13T12:50:24;100804.34;;;28.14;58.47
48200;BME280;33990;44.602;10.976;2023-07-13T12:53:02;100798.72;;;28.16;58.64
48200;BME280;33990;44.602;10.976;2023-07-13T12:56:03;100791.19;;;28.18;58.77
48200;BME280;33990;44.602;10.976;2023-07-13T12:58:41;100795.09;;;28.30;59.03
48200;BME280;33990;44.602;10.976;2023-07-13T13:01:11;100793.97;;;28.39;59.07
48200;BME280;33990;44.602;10.976;2023-07-13T13:03:46;100790.66;;;28.44;57.58
48200;BME280;33990;44.602;10.976;2023-07-13T13:08:42;100785.09;;;28.52;56.52
48200;BME280;33990;44.602;10.976;2023-07-13T13:11:10;100781.53;;;28.51;55.80
48200;BME280;33990;44.602;10.976;2023-07-13T13:13:38;100784.94;;;28.53;55.22
48200;BME280;33990;44.602;10.976;2023-07-13T13:18:49;100777.00;;;28.58;57.33
48200;BME280;33990;44.602;10.976;2023-07-13T13:21:17;100772.06;;;28.47;57.34
48200;BME280;33990;44.602;10.976;2023-07-13T13:23:45;100773.50;;;28.43;57.56
48200;BME280;33990;44.602;10.976;2023-07-13T13:26:14;100771.34;;;28.39;58.04
48200;BME280;33990;44.602;10.976;2023-07-13T13:28:45;100766.97;;;28.38;58.04
48200;BME280;33990;44.602;10.976;2023-07-13T13:31:15;100761.50;;;28.38;58.03
48200;BME280;33990;44.602;10.976;2023-07-13T13:33:44;100757.16;;;28.43;58.23